Boynton Beach, FL (33437)

11:37 PM EDT on May 23, 2015 (GMT -0400)
Pipers Glen Estates | | Change Station
CLOSE
Current Station
Personal Weather Station
Location: Boynton Beach, FL
Elevation: 27 ft
Nearby Weather Stations

Elev 27 ft 26.49 °N, 80.14 °W | Updated 1 second ago

Partly Cloudy
Partly Cloudy
81.0 °F
Feels Like 85 °F
N
0.0
Wind Variable Wind from SSW
Gusts 0.0 mph

Today
High -- | Low -- °F
--% Chance of Precip.
Yesterday
High -- | Low -- °F
Precip. -- in
6:30 AM 8:04 PM
Waxing Crescent, 35% visible
Pressure 30.19 in
Visibility 10.0 miles
Clouds Scattered Clouds 2600 ft
Scattered Clouds 25000 ft
Heat Index 85 °F
Dew Point 71 °F
Humidity 71%
Rainfall 0.00 in
Snow Depth Not available.
UV 0 out of 12
Pollen 4.30 out of 12
Air Quality Not available.
Flu Activity Sporadic
METAR KPBI 240253Z 09008KT 10SM SCT026 SCT250 27/24 A3019 RMK AO2 SLP223 CB DSNT SE 60002 T02670239 53007 $

More Conditions Fewer Conditions

Pressure 30.19 in
Visibility 10.0 miles
Clouds Scattered Clouds 2600 ft
Scattered Clouds 25000 ft
Heat Index 85 °F
Dew Point 71 °F
Humidity 71%
Rainfall 0.00 in
Snow Depth Not available.
UV 0 out of 12
Pollen 4.30 out of 12
Air Quality Not available.
Flu Activity Sporadic
METAR KPBI 240253Z 09008KT 10SM SCT026 SCT250 27/24 A3019 RMK AO2 SLP223 CB DSNT SE 60002 T02670239 53007 $

More Conditions Fewer Conditions

Nowcast | as of 11:12 PM EDT on May 23, 2015

Isolated to scattered showers will continue to move southwest from the Atlantic waters into the Metro areas of Palm Beach County before dissipating. Rainfall amounts up to tenth of an inch will occur with the heaviest showers. Mariners can also expect higher seas in and near the showers.

×

10-Day Weather Forecast

Almanac

Astronomy

May. 23, 2015 Rise Set
Actual Time
Civil Twilight
Nautical Twilight
Astronomical Twilight
Moon
Length of Visible Light
Length of Day
Tomorrow will be .
, % of the Moon is Illuminated

Today's Extremes

State Highs State Lows

Community

WunderPhotos

Upload Photos

1,823,678 photos uploaded!

WunderBlogs® & News

Nearby

Air Quality

  Air Quality AQ Index Pollutant
Not available.

Snow Depth

Station Depth Elevation

Earthquake Activity

City Distance Mag. Time & Date
Minimum magnitude displayed is 2.5.

Coastal Water Temperatures

Place Temperature

Stations

Nearby Weather Stations

Station Location Temp. Windchill Dew Point Humidity Wind Precip. Elev Updated Type